หน้าหลัก
METAR-TAF:

METAR-TAF

ท่าอากาศยาน :

Ndola, แซมเบีย

ละติจูด: 12-59-50S, ลองจิจูด: 028-39-50E, ความสูง: 1270 ม.

METAR: หายไป

เวลา: 10:52 (08:52 UTC)

การพยากรณ์

รายงานได้ทำขึ้นเมื่อ 16 ชั่วโมงและ 52 นาทีที่แล้ว ณ เวลา 16:00 UTC
การพยากรณ์มีผลตั้งแต่วันที่ 19 ณ เวลา 18 UTC จนถึงวันที่ 20 ณ เวลา 24 UTC
ลม 5 นอตจากใต้/ตะวันออกเฉียงใต้
ทัศนวิสัย 10 กม. หรือมากกว่า
ไม่มีเมฆต่ำกว่า 1,500 ม. และไม่มีเมฆคิวมูโลนิมบัส
กำลังกลายเป็น
ตั้งแต่วันที่ 20 ณ เวลา 03 UTC จนถึงวันที่ 20 ณ เวลา 05 UTC
ลม 5 นอตจากตะวันออก
ทัศนวิสัย: 9000 ม.
ควัน
กำลังกลายเป็น
ตั้งแต่วันที่ 20 ณ เวลา 07 UTC จนถึงวันที่ 20 ณ เวลา 09 UTC
ลม 10 นอตจากตะวันออก
มีเมฆกระจายเป็นบางส่วนที่ความสูง 2000 ฟุต
กำลังกลายเป็น
ตั้งแต่วันที่ 20 ณ เวลา 10 UTC จนถึงวันที่ 20 ณ เวลา 12 UTC
ลม 10 นอตจากตะวันออก/ตะวันออกเฉียงใต้
มีเมฆเป็นส่วนมากเว้นเป็นระยะที่ความสูง 3000 ฟุต

TAF: FLSK 191600Z 1918/2024 16005KT CAVOK BECMG 2003/2005 10005KT 9000 FU NSC BECMG 2007/2009 09010KT SCT020 BECMG 2010/2012 12010KT BKN030

สังเกตการณ์สภาพอากาศและพยากรณ์อากาศของสนามบินมากกว่า 4000 แห่ง (รายงาน METAR และ TAF).

สถานีที่ดูได้จะแสดงไว้ด้วยจุดสีเหลืองและสีแดงบนแผนที่.

เลื่อนเมาส์ไปเหนือจุดเพื่อดูชื่อสถานี.

แล้วคลิกเพื่อดูสังเกตการณ์และการพยากรณ์สภาพอากาศ.

ในการเปลี่ยนแผนที่: คลิกที่ปุ่มสีเขียวที่มีกากบาทสีดำเพื่อซูมเข้า; ที่ปุ่มสีเขียวที่มีขีดเพื่อซูมออก; หรือที่ลูกศรสีเขียวเพื่อไปยังแผนที่ที่อยู่ติดกัน.


METAR-TAF: